Aviation Digital Data Service (ADDS)

Output produced by METARs form (1723 UTC 21 November 2017)
found at http://aviationweather.gov/adds/metars/
 
KROA 211127Z 2112/2212 VRB03KT P6SM BKN250 
     FM212100 19008KT P6SM BKN025 
     FM220200 21004KT P6SM SCT020 
     TEMPO 2202/2204 BKN020